createdAt,value
2022-11-18T00:01:14.385Z,5.70
2022-11-18T00:03:42.823Z,5.70
2022-11-18T00:06:12.775Z,5.60
2022-11-18T00:08:42.757Z,5.70
2022-11-18T00:11:13.130Z,5.70
2022-11-18T00:13:59.106Z,5.70
2022-11-18T00:16:27.342Z,5.70
2022-11-18T00:18:55.442Z,5.70
2022-11-18T00:21:23.613Z,5.70
2022-11-18T00:23:54.155Z,5.70
2022-11-18T00:26:22.301Z,5.70
2022-11-18T00:28:50.440Z,5.70
2022-11-18T00:31:18.675Z,5.60
2022-11-18T00:33:47.034Z,5.60
2022-11-18T00:36:15.236Z,5.60
2022-11-18T00:38:43.357Z,5.60
2022-11-18T00:41:13.668Z,5.60
2022-11-18T00:43:41.028Z,5.60
2022-11-18T00:46:10.249Z,5.60
2022-11-18T00:48:38.797Z,5.60
2022-11-18T00:51:11.569Z,5.60
2022-11-18T00:53:39.776Z,5.60
2022-11-18T00:56:08.046Z,5.60
2022-11-18T00:58:37.898Z,5.60
2022-11-18T01:01:06.223Z,5.60
2022-11-18T01:03:34.632Z,5.60
2022-11-18T01:06:02.895Z,5.60
2022-11-18T01:08:31.060Z,5.60
2022-11-18T01:11:19.920Z,5.60
2022-11-18T01:14:09.329Z,5.60
2022-11-18T01:16:54.962Z,5.60
2022-11-18T01:19:24.027Z,5.50
2022-11-18T01:21:53.266Z,5.50
2022-11-18T01:24:21.463Z,5.50
2022-11-18T01:26:49.628Z,5.50
2022-11-18T01:29:19.454Z,5.50
2022-11-18T01:32:09.273Z,5.50
2022-11-18T01:34:36.614Z,5.40
2022-11-18T01:37:04.907Z,5.40
2022-11-18T01:39:33.051Z,5.40
2022-11-18T01:42:01.255Z,5.40
2022-11-18T01:44:48.096Z,5.40
2022-11-18T01:47:18.975Z,5.40
2022-11-18T01:49:47.249Z,5.40
2022-11-18T01:52:16.089Z,5.40
2022-11-18T01:54:46.102Z,5.40
2022-11-18T01:57:18.418Z,5.40
2022-11-18T01:59:50.493Z,5.40
2022-11-18T02:02:21.305Z,5.40
2022-11-18T02:04:50.409Z,5.30
2022-11-18T02:07:18.957Z,5.40
2022-11-18T02:09:47.094Z,5.30
2022-11-18T02:12:15.454Z,5.30
2022-11-18T02:14:45.244Z,5.30
2022-11-18T02:17:20.536Z,5.30
2022-11-18T02:20:02.646Z,5.30
2022-11-18T02:22:37.936Z,5.30
2022-11-18T02:25:09.566Z,5.30
2022-11-18T02:27:52.384Z,5.30
2022-11-18T02:30:22.146Z,5.30
2022-11-18T02:32:51.644Z,5.30
2022-11-18T02:35:21.427Z,5.30
2022-11-18T02:37:51.240Z,5.30
2022-11-18T02:40:23.717Z,5.20
2022-11-18T02:42:54.323Z,5.20
2022-11-18T02:45:24.424Z,5.20
2022-11-18T02:47:52.954Z,5.20
2022-11-18T02:50:24.250Z,5.20
2022-11-18T02:52:54.748Z,5.20
2022-11-18T02:55:23.609Z,5.10
2022-11-18T02:57:52.058Z,5.10
2022-11-18T03:00:20.180Z,5.10
2022-11-18T03:02:50.447Z,5.10
2022-11-18T03:05:21.438Z,5.00
2022-11-18T03:07:51.757Z,5.00
2022-11-18T03:10:21.110Z,5.00
2022-11-18T03:12:54.193Z,5.00
2022-11-18T03:15:28.708Z,5.00
2022-11-18T03:18:02.853Z,5.00
2022-11-18T03:20:34.503Z,5.00
2022-11-18T03:23:05.615Z,5.00
2022-11-18T03:25:38.691Z,5.00
2022-11-18T03:28:10.327Z,5.00
2022-11-18T03:30:40.232Z,4.90
2022-11-18T03:33:11.684Z,5.00
2022-11-18T03:35:41.796Z,5.00
2022-11-18T03:38:11.387Z,5.00
2022-11-18T03:40:40.950Z,5.00
2022-11-18T03:43:11.856Z,5.00
2022-11-18T03:45:43.794Z,5.00
2022-11-18T03:48:16.286Z,5.00
2022-11-18T03:50:46.729Z,5.00
2022-11-18T03:53:15.948Z,5.00
2022-11-18T03:55:46.257Z,5.00
2022-11-18T03:58:17.369Z,5.00
2022-11-18T04:00:47.348Z,5.00
2022-11-18T04:03:17.079Z,5.00
2022-11-18T04:05:45.617Z,5.00
2022-11-18T04:08:16.480Z,5.00
2022-11-18T04:10:48.222Z,5.00
2022-11-18T04:13:19.562Z,5.00
2022-11-18T04:15:47.780Z,5.00
2022-11-18T04:18:17.409Z,4.90
2022-11-18T04:20:45.599Z,4.90
2022-11-18T04:23:13.773Z,4.80
2022-11-18T04:25:42.055Z,4.80
2022-11-18T04:28:10.214Z,4.70
2022-11-18T04:30:38.488Z,4.70
2022-11-18T04:33:06.652Z,4.70
2022-11-18T04:35:36.185Z,4.60
2022-11-18T04:38:05.016Z,4.60
2022-11-18T04:40:33.394Z,4.60
2022-11-18T04:43:01.575Z,4.50
2022-11-18T04:45:29.796Z,4.50
2022-11-18T04:48:03.279Z,4.50
2022-11-18T04:50:32.025Z,4.50
2022-11-18T04:53:01.534Z,4.60
2022-11-18T04:55:29.608Z,4.60
2022-11-18T04:57:57.871Z,4.50
2022-11-18T05:00:26.032Z,4.50
2022-11-18T05:02:54.223Z,4.40
2022-11-18T05:05:22.308Z,4.40
2022-11-18T05:07:50.526Z,4.40
2022-11-18T05:10:20.304Z,4.40
2022-11-18T05:12:50.472Z,4.40
2022-11-18T05:15:19.000Z,4.40
2022-11-18T05:17:47.146Z,4.40
2022-11-18T05:20:16.481Z,4.40
2022-11-18T05:22:44.671Z,4.40
2022-11-18T05:25:13.102Z,4.30
2022-11-18T05:27:42.721Z,4.30
2022-11-18T05:30:11.603Z,4.40
2022-11-18T05:32:39.693Z,4.30
2022-11-18T05:35:08.145Z,4.30
2022-11-18T05:37:36.217Z,4.30
2022-11-18T05:40:04.626Z,4.30
2022-11-18T05:42:50.214Z,4.40
2022-11-18T05:45:20.612Z,4.30
2022-11-18T05:48:04.941Z,4.20
2022-11-18T05:50:34.075Z,4.20
2022-11-18T05:53:02.239Z,4.10
2022-11-18T05:55:31.197Z,4.10
2022-11-18T05:57:59.331Z,4.10
2022-11-18T06:00:29.220Z,4.00
2022-11-18T06:02:58.390Z,4.10
2022-11-18T06:05:27.570Z,4.00
2022-11-18T06:07:57.921Z,4.00
2022-11-18T06:10:27.601Z,4.00
2022-11-18T06:12:58.292Z,3.90
2022-11-18T06:15:27.746Z,3.90
2022-11-18T06:17:59.416Z,3.90
2022-11-18T06:20:27.593Z,3.90
2022-11-18T06:22:57.276Z,3.80
2022-11-18T06:25:25.841Z,3.80
2022-11-18T06:27:55.230Z,3.90
2022-11-18T06:30:23.351Z,3.80
2022-11-18T06:32:51.490Z,3.80
2022-11-18T06:35:21.018Z,3.80
2022-11-18T06:37:49.249Z,3.80
2022-11-18T06:40:17.830Z,3.80
2022-11-18T06:43:18.120Z,3.80
2022-11-18T06:46:08.946Z,3.80
2022-11-18T06:48:54.847Z,3.80
2022-11-18T06:51:41.876Z,3.80
2022-11-18T06:54:27.668Z,3.70
2022-11-18T06:57:13.032Z,3.70
2022-11-18T07:00:02.041Z,3.60
2022-11-18T07:02:48.260Z,3.60
2022-11-18T07:05:33.680Z,3.60
2022-11-18T07:08:20.862Z,3.60
2022-11-18T07:11:10.811Z,3.60
2022-11-18T07:13:43.384Z,3.50
2022-11-18T07:16:12.829Z,3.40
2022-11-18T07:18:42.247Z,3.50
2022-11-18T07:21:12.090Z,3.50
2022-11-18T07:23:41.777Z,3.40
2022-11-18T07:26:10.273Z,3.40
2022-11-18T07:28:38.592Z,3.50
2022-11-18T07:31:07.701Z,3.60
2022-11-18T07:33:36.032Z,3.40
2022-11-18T07:36:04.727Z,3.40
2022-11-18T07:38:32.985Z,3.40
2022-11-18T07:41:06.119Z,3.40
2022-11-18T07:43:35.006Z,3.40
2022-11-18T07:46:13.815Z,3.40
2022-11-18T07:48:42.221Z,3.30
2022-11-18T07:51:10.397Z,3.40
2022-11-18T07:53:38.650Z,3.40
2022-11-18T07:56:08.836Z,3.40
2022-11-18T07:58:37.341Z,3.40
2022-11-18T08:01:09.583Z,3.10
2022-11-18T08:03:37.748Z,3.30
2022-11-18T08:06:06.448Z,3.20
2022-11-18T08:08:34.756Z,3.20
2022-11-18T08:11:03.650Z,3.20
2022-11-18T08:13:33.507Z,3.20
2022-11-18T08:16:01.824Z,3.20
2022-11-18T08:18:30.569Z,3.20
2022-11-18T08:21:02.777Z,3.20
2022-11-18T08:23:34.063Z,3.20
2022-11-18T08:26:05.617Z,3.20
2022-11-18T08:28:35.476Z,3.00
2022-11-18T08:31:10.069Z,2.90
2022-11-18T08:33:38.474Z,2.80
2022-11-18T08:36:07.491Z,2.90
2022-11-18T08:38:35.920Z,2.80
2022-11-18T08:41:07.489Z,2.70
2022-11-18T08:43:38.045Z,2.70
2022-11-18T08:46:06.365Z,2.70
2022-11-18T08:48:34.507Z,2.60
2022-11-18T08:51:03.110Z,2.60
2022-11-18T08:53:31.302Z,2.50
2022-11-18T08:55:59.829Z,2.60
2022-11-18T08:58:28.150Z,2.60
2022-11-18T09:00:57.714Z,2.60
2022-11-18T09:03:26.098Z,2.50
2022-11-18T09:05:54.317Z,2.40
2022-11-18T09:08:26.689Z,2.30
2022-11-18T09:10:54.842Z,2.40
2022-11-18T09:13:49.849Z,2.40
2022-11-18T09:16:12.738Z,2.30
2022-11-18T09:18:40.935Z,2.30
2022-11-18T09:21:10.113Z,2.20
2022-11-18T09:23:39.139Z,2.20
2022-11-18T09:26:08.367Z,2.20
2022-11-18T09:28:36.618Z,2.10
2022-11-18T09:31:05.348Z,2.00
2022-11-18T09:33:35.087Z,1.90
2022-11-18T09:36:03.547Z,1.90
2022-11-18T09:38:32.077Z,1.90
2022-11-18T09:41:06.614Z,1.80
2022-11-18T09:43:40.466Z,1.90
2022-11-18T09:46:16.741Z,1.80
2022-11-18T09:49:03.622Z,1.80
2022-11-18T09:51:34.469Z,1.70
2022-11-18T09:54:02.724Z,1.70
2022-11-18T09:56:31.233Z,1.70
2022-11-18T09:58:59.399Z,1.70
2022-11-18T10:01:28.063Z,1.70
2022-11-18T10:03:57.712Z,1.70
2022-11-18T10:06:27.611Z,1.70
2022-11-18T10:09:05.919Z,1.60
2022-11-18T10:11:40.363Z,1.60
2022-11-18T10:14:17.332Z,1.70
2022-11-18T10:16:52.753Z,1.70
2022-11-18T10:19:30.773Z,1.70
2022-11-18T10:22:09.923Z,1.80
2022-11-18T10:24:44.158Z,1.70
2022-11-18T10:27:13.878Z,1.60
2022-11-18T10:29:42.219Z,1.60
2022-11-18T10:32:13.269Z,1.60
2022-11-18T10:34:49.518Z,1.50
2022-11-18T10:37:34.760Z,1.40
2022-11-18T10:40:24.567Z,1.40
2022-11-18T10:42:52.717Z,1.30
2022-11-18T10:45:28.795Z,1.30
2022-11-18T10:48:01.250Z,1.40
2022-11-18T10:50:32.978Z,1.30
2022-11-18T10:53:01.404Z,1.30
2022-11-18T10:55:29.879Z,1.30
2022-11-18T10:58:03.127Z,1.30
2022-11-18T11:00:36.457Z,1.30
2022-11-18T11:03:16.978Z,1.30
2022-11-18T11:05:46.565Z,1.30
2022-11-18T11:08:36.235Z,1.30
2022-11-18T11:11:05.498Z,1.30
2022-11-18T11:13:33.877Z,1.30
2022-11-18T11:16:03.959Z,1.30
2022-11-18T11:18:44.867Z,1.30
2022-11-18T11:21:14.588Z,1.30
2022-11-18T11:23:43.278Z,1.30
2022-11-18T11:29:06.954Z,1.30
2022-11-18T11:31:38.996Z,1.40
2022-11-18T11:34:11.779Z,1.40
2022-11-18T11:36:45.369Z,1.40
2022-11-18T11:39:30.431Z,1.40
2022-11-18T11:42:03.476Z,1.40
2022-11-18T11:44:39.187Z,1.50
2022-11-18T11:47:40.518Z,1.50
2022-11-18T11:50:14.977Z,1.40
2022-11-18T11:52:49.824Z,1.30
2022-11-18T11:55:20.019Z,1.30
2022-11-18T11:58:00.801Z,1.30
2022-11-18T12:00:29.776Z,1.30
2022-11-18T12:03:02.753Z,1.20
2022-11-18T12:05:34.511Z,1.30
2022-11-18T12:08:07.734Z,1.20
2022-11-18T12:10:41.906Z,1.30
2022-11-18T12:13:18.764Z,1.40
2022-11-18T12:15:53.286Z,1.50
2022-11-18T12:18:23.882Z,1.40
2022-11-18T12:20:52.534Z,1.40
2022-11-18T12:23:23.498Z,1.30
2022-11-18T12:25:56.616Z,1.20
2022-11-18T12:28:25.923Z,1.20
2022-11-18T12:31:08.927Z,1.30
2022-11-18T12:33:43.520Z,1.30
2022-11-18T12:36:11.879Z,1.20
2022-11-18T12:38:41.467Z,1.20
2022-11-18T12:42:00.514Z,1.20
2022-11-18T12:44:29.617Z,1.20
2022-11-18T12:46:57.904Z,1.20
2022-11-18T12:49:46.743Z,1.20
2022-11-18T12:52:29.724Z,1.20
2022-11-18T12:55:00.174Z,1.10
2022-11-18T12:57:29.785Z,1.10
2022-11-18T12:59:58.103Z,1.10
2022-11-18T13:02:27.109Z,1.10
2022-11-18T13:05:09.715Z,1.10
2022-11-18T13:08:00.159Z,1.10
2022-11-18T13:10:32.013Z,1.10
2022-11-18T13:13:00.434Z,1.10
2022-11-18T13:15:46.219Z,1.00
2022-11-18T13:18:16.050Z,1.10
2022-11-18T13:20:45.012Z,1.10
2022-11-18T13:23:47.349Z,1.00
2022-11-18T13:26:22.841Z,0.90
2022-11-18T13:29:01.242Z,0.80
2022-11-18T13:31:33.511Z,0.90
2022-11-18T13:34:03.192Z,0.70
2022-11-18T13:36:33.178Z,0.60
2022-11-18T13:39:02.302Z,0.60
2022-11-18T13:41:34.004Z,0.60
2022-11-18T13:44:12.147Z,0.60
2022-11-18T13:46:41.050Z,0.60
2022-11-18T13:49:15.922Z,0.60
2022-11-18T13:51:44.750Z,0.70
2022-11-18T13:54:13.411Z,0.60
2022-11-18T13:56:43.041Z,0.60
2022-11-18T13:59:18.073Z,0.60
2022-11-18T14:01:47.874Z,0.60
2022-11-18T14:04:19.273Z,-1.30
2022-11-18T14:06:47.475Z,0.60
2022-11-18T14:09:20.600Z,0.50
2022-11-18T14:12:01.035Z,0.40
2022-11-18T14:14:33.771Z,0.30
2022-11-18T14:17:06.063Z,0.40
2022-11-18T14:19:34.607Z,0.40
2022-11-18T14:22:11.601Z,0.30
2022-11-18T14:24:41.148Z,0.20
2022-11-18T14:27:27.747Z,0.10
2022-11-18T14:29:59.349Z,0.20
2022-11-18T14:32:27.823Z,0.10
2022-11-18T14:35:00.051Z,0.20
2022-11-18T14:37:29.001Z,0.10
2022-11-18T14:39:57.820Z,0.10
2022-11-18T14:42:26.151Z,0.00
2022-11-18T14:44:54.751Z,0.10
2022-11-18T14:47:30.312Z,0.10
2022-11-18T14:49:58.753Z,0.00
2022-11-18T14:52:27.196Z,0.00
2022-11-18T14:54:55.853Z,0.10
2022-11-18T14:57:24.091Z,0.00
2022-11-18T14:59:53.361Z,0.00
2022-11-18T15:02:21.785Z,0.00
2022-11-18T15:04:52.809Z,0.10
2022-11-18T15:07:23.809Z,0.10
2022-11-18T15:09:52.346Z,0.10
2022-11-18T15:12:22.504Z,0.10
2022-11-18T15:14:50.873Z,0.10
2022-11-18T15:17:20.390Z,0.20
2022-11-18T15:19:48.850Z,0.20
2022-11-18T15:22:18.401Z,0.20
2022-11-18T15:24:46.487Z,0.20
2022-11-18T15:27:14.789Z,0.10
2022-11-18T15:29:42.930Z,0.00
2022-11-18T15:32:11.107Z,0.00
2022-11-18T15:34:39.753Z,0.10
2022-11-18T15:37:08.408Z,0.10
2022-11-18T15:39:38.172Z,0.20
2022-11-18T15:42:06.446Z,0.10
2022-11-18T15:44:34.768Z,0.10
2022-11-18T15:47:03.422Z,0.10
2022-11-18T15:49:31.696Z,0.10
2022-11-18T15:52:00.031Z,0.10
2022-11-18T15:54:29.297Z,0.20
2022-11-18T15:56:59.131Z,0.20
2022-11-18T15:59:27.260Z,0.20
2022-11-18T16:01:56.582Z,0.10
2022-11-18T16:04:24.820Z,0.20
2022-11-18T16:06:53.804Z,0.20
2022-11-18T16:09:22.503Z,0.20
2022-11-18T16:12:07.745Z,0.20
2022-11-18T16:14:40.054Z,0.10
2022-11-18T16:17:08.181Z,0.10
2022-11-18T16:19:36.346Z,0.10
2022-11-18T16:22:04.761Z,0.00
2022-11-18T16:24:34.791Z,0.20
2022-11-18T16:27:04.664Z,0.00
2022-11-18T16:29:33.085Z,0.00
2022-11-18T16:32:02.672Z,0.00
2022-11-18T16:34:30.956Z,0.00
2022-11-18T16:37:01.354Z,0.00
2022-11-18T16:39:30.147Z,0.10
2022-11-18T16:42:06.942Z,0.10
2022-11-18T16:44:36.938Z,0.10
2022-11-18T16:47:13.951Z,0.10
2022-11-18T16:49:44.593Z,0.20
2022-11-18T16:52:13.209Z,0.30
2022-11-18T16:54:45.826Z,0.20
2022-11-18T16:57:14.952Z,0.30
2022-11-18T16:59:43.312Z,0.30
2022-11-18T17:02:14.217Z,0.30
2022-11-18T17:04:42.695Z,0.30
2022-11-18T17:07:10.936Z,0.30
2022-11-18T17:09:39.325Z,0.30
2022-11-18T17:12:08.109Z,0.30
2022-11-18T17:14:38.366Z,0.30
2022-11-18T17:17:06.615Z,0.40
2022-11-18T17:19:37.255Z,0.30
2022-11-18T17:22:05.520Z,0.30
2022-11-18T17:24:34.928Z,0.30
2022-11-18T17:27:03.198Z,0.20
2022-11-18T17:29:33.061Z,0.20
2022-11-18T17:32:01.524Z,0.20
2022-11-18T17:34:29.742Z,0.30
2022-11-18T17:37:06.302Z,0.30
2022-11-18T17:39:34.998Z,0.30
2022-11-18T17:42:22.759Z,0.30
2022-11-18T17:44:51.009Z,0.20
2022-11-18T17:47:19.279Z,0.20
2022-11-18T17:49:47.979Z,0.20
2022-11-18T17:52:18.812Z,0.30
2022-11-18T17:54:47.483Z,0.20
2022-11-18T17:57:15.956Z,0.20
2022-11-18T17:59:45.059Z,0.20
2022-11-18T18:02:13.801Z,0.20
2022-11-18T18:04:42.168Z,0.20
2022-11-18T18:07:10.509Z,0.10
2022-11-18T18:09:40.959Z,0.10
2022-11-18T18:12:23.329Z,0.00
2022-11-18T18:15:08.955Z,0.00
2022-11-18T18:17:37.439Z,0.10
2022-11-18T18:20:05.840Z,0.10
2022-11-18T18:22:35.871Z,0.10
2022-11-18T18:25:07.726Z,0.10
2022-11-18T18:27:36.777Z,0.00
2022-11-18T18:30:05.661Z,0.00
2022-11-18T18:32:34.065Z,0.00
2022-11-18T18:35:05.679Z,-0.20
2022-11-18T18:37:36.244Z,-0.20
2022-11-18T18:40:06.528Z,-0.20
2022-11-18T18:42:34.984Z,-0.20
2022-11-18T18:45:20.709Z,-0.20
2022-11-18T18:47:49.749Z,-0.20
2022-11-18T18:50:18.810Z,-0.10
2022-11-18T18:52:47.178Z,-0.10
2022-11-18T18:55:17.057Z,-0.10
2022-11-18T18:57:45.307Z,0.20
2022-11-18T19:00:14.353Z,-0.10
2022-11-18T19:02:42.485Z,-0.10
2022-11-18T19:05:17.488Z,-0.10
2022-11-18T19:07:45.752Z,-0.20
2022-11-18T19:10:14.250Z,-0.30
2022-11-18T19:12:44.077Z,-0.30
2022-11-18T19:15:13.304Z,-0.30
2022-11-18T19:17:42.033Z,-0.30
2022-11-18T19:20:29.898Z,-0.30
2022-11-18T19:23:00.295Z,-0.30
2022-11-18T19:25:28.521Z,-0.40
2022-11-18T19:27:58.424Z,-0.30
2022-11-18T19:30:26.731Z,-0.30
2022-11-18T19:32:56.635Z,-0.30
2022-11-18T19:35:25.302Z,-0.30
2022-11-18T19:37:54.161Z,-0.30
2022-11-18T19:40:22.574Z,-0.30
2022-11-18T19:42:50.995Z,-0.30
2022-11-18T19:45:20.573Z,-0.30
2022-11-18T19:47:48.722Z,-0.30
2022-11-18T19:50:17.291Z,-0.30
2022-11-18T19:52:48.520Z,-0.30
2022-11-18T19:55:16.784Z,-0.30
2022-11-18T19:57:45.204Z,-0.40
2022-11-18T20:00:15.169Z,-0.40
2022-11-18T20:02:44.785Z,-0.40
2022-11-18T20:05:30.238Z,-0.40
2022-11-18T20:07:58.408Z,-0.40
2022-11-18T20:10:26.613Z,-0.40
2022-11-18T20:12:56.465Z,-0.50
2022-11-18T20:15:25.154Z,-0.50
2022-11-18T20:17:55.115Z,-0.50
2022-11-18T20:20:23.354Z,-0.50
2022-11-18T20:22:54.153Z,-0.60
2022-11-18T20:25:22.643Z,-0.60
2022-11-18T20:27:50.855Z,-0.50
2022-11-18T20:30:19.675Z,-0.50
2022-11-18T20:32:47.814Z,-0.50
2022-11-18T20:35:17.494Z,-0.50
2022-11-18T20:37:46.048Z,-0.50
2022-11-18T20:40:15.625Z,-0.50
2022-11-18T20:43:02.464Z,-0.40
2022-11-18T20:45:30.692Z,-0.50
2022-11-18T20:47:59.144Z,-0.50
2022-11-18T20:50:28.772Z,-0.50
2022-11-18T20:52:57.308Z,-0.40
2022-11-18T20:55:29.921Z,-0.50
2022-11-18T20:57:58.766Z,-0.50
2022-11-18T21:00:26.994Z,-0.60
2022-11-18T21:02:59.073Z,-0.50
2022-11-18T21:05:31.147Z,-0.60
2022-11-18T21:08:00.811Z,-0.60
2022-11-18T21:10:28.944Z,-0.60
2022-11-18T21:13:14.355Z,-0.60
2022-11-18T21:15:43.194Z,-0.60
2022-11-18T21:18:11.421Z,-0.60
2022-11-18T21:20:54.948Z,-0.60
2022-11-18T21:23:23.064Z,-0.50
2022-11-18T21:25:51.243Z,-0.50
2022-11-18T21:28:19.615Z,-0.50
2022-11-18T21:30:47.734Z,-0.50
2022-11-18T21:33:15.967Z,-0.50
2022-11-18T21:35:45.500Z,-0.50
2022-11-18T21:38:13.946Z,-0.50
2022-11-18T21:40:42.192Z,-0.50
2022-11-18T21:43:10.415Z,-0.50
2022-11-18T21:45:38.504Z,-0.50
2022-11-18T21:48:06.854Z,-0.60
2022-11-18T21:50:34.930Z,-0.60
2022-11-18T21:53:05.667Z,-0.60
2022-11-18T21:55:33.944Z,-0.60
2022-11-18T21:58:04.090Z,-0.60
2022-11-18T22:00:32.582Z,-0.60
2022-11-18T22:03:00.771Z,-0.60
2022-11-18T22:05:29.824Z,-0.60
2022-11-18T22:07:58.013Z,-0.60
2022-11-18T22:10:27.655Z,-0.60
2022-11-18T22:12:55.801Z,-0.60
2022-11-18T22:15:25.048Z,-0.70
2022-11-18T22:17:53.193Z,-0.70
2022-11-18T22:20:21.586Z,-0.70
2022-11-18T22:22:49.706Z,-0.70
2022-11-18T22:25:18.166Z,-0.70
2022-11-18T22:27:47.868Z,-0.70
2022-11-18T22:30:16.717Z,-0.70
2022-11-18T22:32:45.164Z,-0.70
2022-11-18T22:35:13.426Z,-0.70
2022-11-18T22:37:41.727Z,-0.70
2022-11-18T22:40:10.805Z,-0.70
2022-11-18T22:42:50.677Z,-0.70
2022-11-18T22:45:20.307Z,-0.80
2022-11-18T22:47:50.856Z,-0.70
2022-11-18T22:50:19.105Z,-0.80
2022-11-18T22:52:47.585Z,-0.80
2022-11-18T22:55:17.521Z,-0.80
2022-11-18T22:57:45.936Z,-0.80
2022-11-18T23:00:14.735Z,-0.80
2022-11-18T23:02:44.242Z,-0.80
2022-11-18T23:05:12.305Z,-0.80
2022-11-18T23:07:40.677Z,-0.90
2022-11-18T23:10:09.055Z,-0.90
2022-11-18T23:12:54.681Z,-0.90
2022-11-18T23:15:22.825Z,-1.00
2022-11-18T23:17:52.426Z,-1.00
2022-11-18T23:20:20.594Z,-1.00
2022-11-18T23:22:48.780Z,-1.10
2022-11-18T23:25:16.944Z,-1.10
2022-11-18T23:27:46.137Z,-1.10
2022-11-18T23:30:16.465Z,-1.10
2022-11-18T23:32:44.536Z,-1.10
2022-11-18T23:35:14.121Z,-1.20
2022-11-18T23:37:42.405Z,-1.10
2022-11-18T23:40:11.145Z,-1.20
2022-11-18T23:42:39.266Z,-1.20
2022-11-18T23:45:07.842Z,-1.20
2022-11-18T23:47:35.949Z,-1.20
2022-11-18T23:50:04.216Z,-1.20
2022-11-18T23:52:33.921Z,-1.30
2022-11-18T23:55:02.351Z,-1.30
2022-11-18T23:57:30.535Z,-1.30
2022-11-18T23:59:58.937Z,-1.30
